Time;durP1;ratioP1;P1;durP2;ratioP2;P2;SDS_P1;SDS_P2;PMS_P1;PMS_P2;Temp;Humidity;BMP_temperature;BMP_pressure;BME280_temperature;BME280_humidity;BME280_pressure;Samples;Min_cycle;Max_cycle;Signal;HPM_P1;HPM_P2
2022/06/08 00:00:26;;;;;;;4.05;2.45;;;;;;;16.50;100.00;97426.59;5055030;28;20029;-82
2022/06/08 00:03:00;;;;;;;6.55;3.20;;;;;;;16.49;100.00;97433.25;5035895;28;20120;-82
2022/06/08 00:05:26;;;;;;;4.47;3.08;;;;;;;16.51;100.00;97424.59;5036247;28;20036;-81
2022/06/08 00:07:52;;;;;;;4.18;2.78;;;;;;;16.53;100.00;97427.84;5037060;28;20064;-81
2022/06/08 00:10:17;;;;;;;9.63;3.45;;;;;;;16.48;100.00;97428.88;5042812;28;20029;-84
2022/06/08 00:12:43;;;;;;;5.15;3.13;;;;;;;16.34;100.00;97427.63;5055832;28;20063;-82
2022/06/08 00:15:10;;;;;;;5.40;2.90;;;;;;;16.25;100.00;97418.66;5035474;28;20028;-81
2022/06/08 00:17:36;;;;;;;7.38;3.20;;;;;;;16.13;100.00;97405.66;5036331;28;20021;-84
2022/06/08 00:20:04;;;;;;;6.18;3.08;;;;;;;16.08;100.00;97392.88;5045444;28;20500;-81
2022/06/08 00:22:29;;;;;;;6.65;3.97;;;;;;;16.08;100.00;97381.84;5055604;28;20051;-83
2022/06/08 00:24:55;;;;;;;5.65;4.05;;;;;;;15.97;100.00;97377.16;5053771;28;20470;-81
2022/06/08 00:27:20;;;;;;;6.72;4.35;;;;;;;16.00;100.00;97374.50;5037371;28;20111;-77
2022/06/08 00:29:45;;;;;;;12.80;5.55;;;;;;;16.01;100.00;97362.31;5054460;28;20037;-81
2022/06/08 00:32:11;;;;;;;12.40;5.10;;;;;;;15.91;100.00;97350.94;5043720;28;20033;-81
2022/06/08 00:34:36;;;;;;;10.60;5.47;;;;;;;15.94;100.00;97347.50;5036983;28;20030;-80
2022/06/08 00:37:02;;;;;;;11.13;5.40;;;;;;;15.81;100.00;97337.59;5039499;28;20055;-86
2022/06/08 00:39:27;;;;;;;9.43;4.85;;;;;;;15.81;100.00;97348.63;5056568;28;20493;-79
2022/06/08 00:41:57;;;;;;;4.95;3.55;;;;;;;15.72;100.00;97354.25;5037430;28;20060;-81
2022/06/08 00:44:27;;;;;;;4.80;3.20;;;;;;;15.76;100.00;97370.91;5050333;28;20087;-81
2022/06/08 00:46:54;;;;;;;4.78;3.05;;;;;;;15.73;100.00;97388.94;5045155;28;20033;-82
2022/06/08 00:49:29;;;;;;;5.85;2.80;;;;;;;15.75;100.00;97397.69;5041202;28;20052;-81
2022/06/08 00:51:55;;;;;;;3.20;2.85;;;;;;;15.77;100.00;97389.88;5053259;28;20360;-82
2022/06/08 00:54:32;;;;;;;9.00;2.53;;;;;;;15.87;100.00;97380.34;5036182;28;20025;-81
2022/06/08 00:57:10;;;;;;;5.60;2.78;;;;;;;15.76;100.00;97374.47;5052884;28;20521;-79
2022/06/08 00:59:50;;;;;;;5.18;2.80;;;;;;;15.67;100.00;97371.00;5054308;28;20440;-79
2022/06/08 01:02:17;;;;;;;4.70;3.13;;;;;;;15.63;100.00;97363.78;5041525;28;20025;-81
2022/06/08 01:04:42;;;;;;;6.57;3.20;;;;;;;15.67;100.00;97354.47;5035421;28;20179;-81
2022/06/08 01:07:07;;;;;;;4.22;2.60;;;;;;;15.73;100.00;97344.81;5038310;28;20534;-80
2022/06/08 01:09:38;;;;;;;6.22;2.42;;;;;;;15.76;100.00;97343.31;5053554;28;20025;-79
2022/06/08 01:12:10;;;;;;;4.00;2.38;;;;;;;15.79;100.00;97334.38;5033669;28;20048;-82
2022/06/08 01:14:36;;;;;;;5.55;2.67;;;;;;;15.82;100.00;97328.19;5032683;28;20505;-80
2022/06/08 01:17:18;;;;;;;4.25;2.33;;;;;;;15.79;100.00;97324.13;5043877;28;20037;-79
2022/06/08 01:19:46;;;;;;;4.78;2.40;;;;;;;15.86;100.00;97316.09;5043748;28;20040;-78
2022/06/08 01:22:15;;;;;;;5.65;2.50;;;;;;;15.90;100.00;97318.97;5036979;28;20139;-77
2022/06/08 01:24:44;;;;;;;9.10;2.70;;;;;;;15.89;100.00;97318.16;5051683;28;20033;-79
2022/06/08 01:27:25;;;;;;;3.58;2.20;;;;;;;15.80;100.00;97325.75;5033022;28;20033;-77
2022/06/08 01:30:12;;;;;;;3.33;2.38;;;;;;;15.91;100.00;97337.94;5050869;28;20554;-79
2022/06/08 01:32:59;;;;;;;4.60;1.92;;;;;;;15.91;100.00;97332.41;5036416;28;20029;-79
2022/06/08 01:35:34;;;;;;;7.05;2.30;;;;;;;15.95;100.00;97333.34;5046944;28;20036;-78
2022/06/08 01:38:35;;;;;;;5.15;2.63;;;;;;;15.96;100.00;97323.91;5041395;28;20044;-77
2022/06/08 01:41:09;;;;;;;4.97;2.30;;;;;;;15.96;100.00;97326.69;5035283;28;20045;-79
2022/06/08 01:43:53;;;;;;;3.28;2.33;;;;;;;16.00;100.00;97335.88;5055505;28;20029;-76
2022/06/08 01:46:28;;;;;;;3.65;2.20;;;;;;;15.93;100.00;97335.66;5052704;28;20045;-82
2022/06/08 01:49:22;;;;;;;7.82;2.58;;;;;;;15.87;100.00;97334.28;5050186;28;20052;-83
2022/06/08 01:52:11;;;;;;;4.90;2.90;;;;;;;15.82;100.00;97334.47;5014928;28;20141;-82
2022/06/08 01:54:55;;;;;;;4.00;2.65;;;;;;;15.81;100.00;97324.63;5046799;28;20037;-80
2022/06/08 01:57:50;;;;;;;3.63;2.60;;;;;;;15.82;100.00;97330.94;5041127;28;20033;-80
2022/06/08 02:00:38;;;;;;;3.65;2.85;;;;;;;15.78;100.00;97330.81;5039322;28;20037;-77
2022/06/08 02:03:07;;;;;;;5.18;2.45;;;;;;;15.72;100.00;97326.69;5032640;28;20037;-80
2022/06/08 02:05:44;;;;;;;3.38;2.55;;;;;;;15.69;100.00;97329.31;5032263;28;20030;-80
2022/06/08 02:08:16;;;;;;;2.78;2.28;;;;;;;15.64;100.00;97324.81;5044961;28;20029;-79
2022/06/08 02:10:55;;;;;;;4.72;2.65;;;;;;;15.64;100.00;97329.53;5051777;28;20044;-79
2022/06/08 02:13:50;;;;;;;6.10;2.75;;;;;;;15.49;100.00;97336.53;5047075;28;20444;-79
2022/06/08 02:16:23;;;;;;;3.33;2.50;;;;;;;15.56;100.00;97325.75;5031242;28;20120;-77
2022/06/08 02:19:06;;;;;;;3.65;2.30;;;;;;;15.54;100.00;97328.03;5032260;28;20033;-78
2022/06/08 02:21:42;;;;;;;5.82;2.85;;;;;;;15.44;100.00;97323.72;5031883;28;20168;-79
2022/06/08 02:24:24;;;;;;;4.18;2.38;;;;;;;15.60;100.00;97332.16;5031890;28;20044;-80
2022/06/08 02:26:58;;;;;;;3.13;2.25;;;;;;;15.61;100.00;97330.22;5013957;28;20017;-79
2022/06/08 02:29:32;;;;;;;3.58;2.30;;;;;;;15.84;100.00;97325.88;5031703;28;20103;-79
2022/06/08 02:34:27;;;;;;;4.05;2.40;;;;;;;15.94;100.00;97323.44;5034858;28;20029;-79
2022/06/08 02:34:53;;;;;;;4.28;2.60;;;;;;;16.05;100.00;97332.88;5034566;28;20758;-78
2022/06/08 02:37:28;;;;;;;2.78;2.20;;;;;;;15.86;100.00;97323.56;5031200;28;20037;-80
2022/06/08 02:40:05;;;;;;;12.60;2.80;;;;;;;15.73;100.00;97336.56;5031260;28;20045;-77
2022/06/08 02:42:37;;;;;;;5.00;2.67;;;;;;;15.63;100.00;97338.97;5030946;28;20374;-79
2022/06/08 02:45:30;;;;;;;3.30;2.50;;;;;;;15.37;100.00;97347.50;5030007;28;20026;-76
2022/06/08 02:48:01;;;;;;;5.63;2.50;;;;;;;15.44;100.00;97340.25;5031143;28;20116;-78
2022/06/08 02:50:27;;;;;;;3.60;2.58;;;;;;;15.58;100.00;97344.69;5031321;28;20517;-78
2022/06/08 02:53:30;;;;;;;3.78;2.60;;;;;;;15.64;100.00;97349.66;5031510;28;20028;-79
2022/06/08 02:56:02;;;;;;;3.30;2.55;;;;;;;15.59;100.00;97347.13;5030958;28;20101;-79
2022/06/08 02:58:39;;;;;;;3.30;2.33;;;;;;;15.63;100.00;97352.75;5029470;28;20040;-78
2022/06/08 03:01:14;;;;;;;4.35;2.53;;;;;;;15.55;100.00;97343.44;5031014;28;20044;-78
2022/06/08 03:03:48;;;;;;;4.30;2.73;;;;;;;15.62;100.00;97340.91;5031768;28;20036;-79
2022/06/08 03:06:19;;;;;;;6.38;2.75;;;;;;;15.69;100.00;97346.69;5029912;28;20024;-78
2022/06/08 03:08:53;;;;;;;2.83;2.28;;;;;;;15.68;100.00;97349.75;5030963;28;20112;-78
2022/06/08 03:11:20;;;;;;;3.30;2.60;;;;;;;15.73;100.00;97358.59;5031112;28;20478;-78
2022/06/08 03:13:54;;;;;;;4.53;2.70;;;;;;;15.88;100.00;97348.88;5013310;28;20079;-78
2022/06/08 03:16:30;;;;;;;4.90;3.08;;;;;;;15.90;100.00;97352.88;5031050;28;20064;-78
2022/06/08 03:18:58;;;;;;;;;;;;;;;15.90;100.00;97347.38;5031517;28;20036;-79
2022/06/08 03:21:24;;;;;;;3.42;2.80;;;;;;;15.85;100.00;97339.31;5030671;28;19924;-79
2022/06/08 03:23:49;;;;;;;4.07;2.97;;;;;;;15.85;100.00;97344.03;5030859;28;20029;-77
2022/06/08 03:26:17;;;;;;;6.07;3.50;;;;;;;15.93;100.00;97352.19;5030914;28;20025;-77
2022/06/08 03:28:44;;;;;;;4.28;3.03;;;;;;;15.91;100.00;97348.19;5030990;28;20025;-78
2022/06/08 03:31:10;;;;;;;4.68;3.08;;;;;;;15.68;100.00;97339.53;5030769;28;20108;-77
2022/06/08 03:33:35;;;;;;;5.00;3.47;;;;;;;15.72;100.00;97351.50;5031177;28;20154;-78
2022/06/08 03:36:01;;;;;;;5.15;3.25;;;;;;;15.64;100.00;97346.06;5031091;28;20041;-78
2022/06/08 03:38:27;;;;;;;6.43;3.30;;;;;;;15.60;100.00;97365.25;5030688;28;20431;-78
2022/06/08 03:40:53;;;;;;;4.18;3.20;;;;;;;15.52;100.00;97377.19;5034530;28;20084;-77
2022/06/08 03:43:19;;;;;;;5.03;3.40;;;;;;;15.55;100.00;97376.50;5001969;28;20022;-80
2022/06/08 03:45:49;;;;;;;5.80;3.10;;;;;;;15.53;100.00;97376.06;5042813;28;20040;-79
2022/06/08 03:48:16;;;;;;;6.50;3.30;;;;;;;15.60;100.00;97381.00;5040122;28;20144;-77
2022/06/08 03:50:44;;;;;;;5.35;3.15;;;;;;;15.59;100.00;97385.72;5033994;28;20430;-79
2022/06/08 03:53:14;;;;;;;3.88;3.00;;;;;;;15.60;100.00;97392.81;5034679;28;20037;-77
2022/06/08 03:55:40;;;;;;;5.10;3.40;;;;;;;15.67;100.00;97393.06;5034609;28;20028;-78
2022/06/08 03:58:07;;;;;;;4.18;3.00;;;;;;;15.70;100.00;97384.13;5034331;28;20033;-78
2022/06/08 04:00:34;;;;;;;4.45;3.22;;;;;;;15.67;100.00;97395.03;5037846;28;20104;-78
2022/06/08 04:03:01;;;;;;;6.47;3.17;;;;;;;15.75;100.00;97396.88;5046819;28;20088;-78
2022/06/08 04:05:27;;;;;;;4.47;3.13;;;;;;;15.93;100.00;97390.81;5054014;28;20029;-78
2022/06/08 04:07:52;;;;;;;5.57;3.42;;;;;;;16.03;100.00;97395.88;5034874;28;20435;-78
2022/06/08 04:10:18;;;;;;;3.70;2.78;;;;;;;16.26;100.00;97398.16;5033820;28;20025;-78
2022/06/08 04:12:43;;;;;;;4.15;2.95;;;;;;;16.07;100.00;97394.03;5033997;28;20033;-79
2022/06/08 04:15:09;;;;;;;4.07;2.72;;;;;;;16.01;100.00;97394.59;5033934;28;20039;-77
2022/06/08 04:17:34;;;;;;;5.88;3.22;;;;;;;15.99;100.00;97396.91;5034220;28;20033;-77
2022/06/08 04:20:00;;;;;;;4.60;3.10;;;;;;;15.99;100.00;97397.72;5052880;28;20048;-80
2022/06/08 04:22:31;;;;;;;4.88;3.13;;;;;;;16.23;100.00;97401.63;5056544;28;20056;-77
2022/06/08 04:25:00;;;;;;;6.25;3.47;;;;;;;16.36;100.00;97403.22;5053749;28;20426;-78
2022/06/08 04:27:26;;;;;;;5.25;2.83;;;;;;;16.39;100.00;97406.09;5054066;28;20043;-75
2022/06/08 04:29:53;;;;;;;9.18;3.45;;;;;;;16.48;100.00;97400.44;5053267;28;20037;-76
2022/06/08 04:32:19;;;;;;;4.88;3.25;;;;;;;16.38;100.00;97406.47;5053650;28;20064;-75
2022/06/08 04:34:45;;;;;;;4.75;3.15;;;;;;;16.17;100.00;97398.28;5037003;28;20431;-74
2022/06/08 04:37:10;;;;;;;4.05;3.00;;;;;;;16.23;100.00;97398.84;5052640;28;20056;-77
2022/06/08 04:39:36;;;;;;;6.18;3.00;;;;;;;16.29;100.00;97400.25;5053279;28;20052;-75
2022/06/08 04:42:03;;;;;;;10.05;3.03;;;;;;;16.29;100.00;97405.78;5054010;28;20021;-75
2022/06/08 04:44:29;;;;;;;5.82;2.85;;;;;;;16.24;100.00;97392.19;5054961;28;20017;-75
2022/06/08 04:46:54;;;;;;;4.55;2.80;;;;;;;16.15;100.00;97397.84;5057818;28;20031;-84
2022/06/08 04:49:21;;;;;;;4.18;2.80;;;;;;;16.22;100.00;97409.13;5053972;28;20054;-83
2022/06/08 04:51:46;;;;;;;3.90;2.80;;;;;;;16.18;100.00;97404.63;5046942;28;20017;-83
2022/06/08 04:54:12;;;;;;;5.93;3.03;;;;;;;16.15;100.00;97408.88;5045468;28;20044;-85
2022/06/08 04:56:38;;;;;;;5.20;2.70;;;;;;;16.24;100.00;97415.09;5070144;28;20029;-84
2022/06/08 04:59:03;;;;;;;4.60;3.03;;;;;;;16.38;100.00;97414.75;5067343;28;20112;-84
2022/06/08 05:01:33;;;;;;;7.40;4.00;;;;;;;16.53;100.00;97420.38;5064625;28;20112;-83
2022/06/08 05:03:58;;;;;;;3.42;2.40;;;;;;;16.34;100.00;97413.81;5068146;28;20612;-83
2022/06/08 05:06:25;;;;;;;3.72;3.05;;;;;;;16.23;100.00;97404.38;5050542;28;20033;-85
2022/06/08 05:08:51;;;;;;;8.30;2.90;;;;;;;16.37;100.00;97410.38;5069952;28;20064;-84
2022/06/08 05:11:17;;;;;;;3.58;2.58;;;;;;;16.45;100.00;97404.72;5071809;28;20021;-85
2022/06/08 05:13:42;;;;;;;4.57;3.00;;;;;;;16.48;100.00;97406.78;5073277;28;20056;-82
2022/06/08 05:16:07;;;;;;;2.97;2.25;;;;;;;16.50;100.00;97418.31;5078320;28;20079;-83
2022/06/08 05:18:34;;;;;;;3.47;2.47;;;;;;;16.49;100.00;97419.44;5076802;28;20017;-84
2022/06/08 05:20:59;;;;;;;3.30;2.42;;;;;;;16.54;100.00;97415.63;5076020;28;20080;-85
2022/06/08 05:23:30;;;;;;;4.75;2.65;;;;;;;16.51;100.00;97416.31;5075833;28;20029;-86
2022/06/08 05:25:56;;;;;;;2.97;2.40;;;;;;;16.59;100.00;97407.16;5058570;28;20092;-86
2022/06/08 05:28:23;;;;;;;4.25;2.35;;;;;;;16.61;100.00;97421.41;5074218;28;20473;-86
2022/06/08 05:30:49;;;;;;;7.35;2.80;;;;;;;16.64;100.00;97415.19;5033909;28;20063;-86
2022/06/08 05:33:15;;;;;;;4.97;2.88;;;;;;;16.57;100.00;97415.00;5045472;28;20053;-83
2022/06/08 05:35:40;;;;;;;4.85;2.88;;;;;;;16.66;100.00;97412.91;5046331;28;20060;-84
2022/06/08 05:38:09;;;;;;;3.50;2.70;;;;;;;16.69;100.00;97417.72;5052638;28;20049;-83
2022/06/08 05:40:37;;;;;;;3.55;2.25;;;;;;;16.84;100.00;97424.47;5052766;28;20462;-86
2022/06/08 05:43:04;;;;;;;6.60;2.50;;;;;;;16.79;100.00;97425.50;5055974;28;20029;-83
2022/06/08 05:45:31;;;;;;;2.70;2.05;;;;;;;16.97;100.00;97431.59;5038136;28;20037;-86
2022/06/08 05:47:57;;;;;;;5.18;2.80;;;;;;;17.19;100.00;97435.78;5054913;28;20037;-84
2022/06/08 05:50:24;;;;;;;6.95;2.47;;;;;;;17.30;100.00;97432.16;5054418;28;20041;-82
2022/06/08 05:52:50;;;;;;;4.93;2.45;;;;;;;17.54;100.00;97443.09;5024383;28;20372;-78
2022/06/08 05:55:17;;;;;;;4.68;2.72;;;;;;;17.65;100.00;97448.97;5020217;28;20033;-84
2022/06/08 05:57:43;;;;;;;3.25;2.30;;;;;;;17.68;100.00;97453.78;5048688;28;20029;-84
2022/06/08 06:00:15;;;;;;;3.47;2.60;;;;;;;17.57;100.00;97447.19;5050986;28;20026;-81
2022/06/08 06:02:42;;;;;;;3.05;2.30;;;;;;;17.80;100.00;97453.72;5046460;28;20036;-82
2022/06/08 06:05:08;;;;;;;3.42;2.50;;;;;;;17.94;100.00;97451.34;5044025;28;19994;-80
2022/06/08 06:07:33;;;;;;;3.42;2.50;;;;;;;18.02;100.00;97450.38;5043169;28;20080;-83
2022/06/08 06:10:03;;;;;;;4.40;2.80;;;;;;;18.18;100.00;97455.91;5032352;28;20402;-81
2022/06/08 06:12:29;;;;;;;4.55;2.85;;;;;;;18.39;100.00;97456.44;5032907;28;20096;-80
2022/06/08 06:14:54;;;;;;;4.13;2.95;;;;;;;18.46;100.00;97456.63;5036129;28;20471;-82
2022/06/08 06:17:20;;;;;;;3.45;2.20;;;;;;;18.36;100.00;97451.59;5020006;28;20076;-79
2022/06/08 06:19:45;;;;;;;3.05;2.25;;;;;;;18.23;100.00;97457.63;5040041;28;20123;-82
2022/06/08 06:22:10;;;;;;;2.78;2.05;;;;;;;18.03;100.00;97460.28;5019933;28;20057;-78
2022/06/08 06:24:36;;;;;;;4.00;2.60;;;;;;;17.96;100.00;97457.31;5032636;28;20120;-75
2022/06/08 06:27:01;;;;;;;4.05;2.50;;;;;;;17.90;100.00;97466.25;5013561;28;20025;-75
2022/06/08 06:29:26;;;;;;;5.20;2.63;;;;;;;17.86;100.00;97491.03;5031368;28;20033;-75
2022/06/08 06:31:58;;;;;;;3.08;2.40;;;;;;;17.67;100.00;97485.38;5017017;28;20072;-80
2022/06/08 06:34:26;;;;;;;3.70;2.80;;;;;;;17.73;100.00;97488.72;5038867;28;20025;-82
2022/06/08 06:36:53;;;;;;;4.00;2.50;;;;;;;17.61;100.00;97482.06;5042425;28;20028;-80
2022/06/08 06:39:20;;;;;;;4.95;2.80;;;;;;;17.67;100.00;97492.91;5054974;28;20043;-81
2022/06/08 06:41:46;;;;;;;6.78;3.10;;;;;;;17.44;100.00;97481.53;5045801;28;20044;-78
2022/06/08 06:44:11;;;;;;;4.68;2.95;;;;;;;17.41;100.00;97493.31;5056325;28;20158;-80
2022/06/08 06:46:37;;;;;;;4.80;2.95;;;;;;;17.37;100.00;97486.84;5065113;28;20089;-81
2022/06/08 06:49:02;;;;;;;4.07;3.20;;;;;;;17.01;100.00;97491.31;5067049;28;20031;-85
2022/06/08 06:51:27;;;;;;;3.78;2.72;;;;;;;17.03;100.00;97489.03;5070788;28;20021;-83
2022/06/08 06:53:53;;;;;;;3.72;2.92;;;;;;;16.87;100.00;97477.09;5065433;28;20033;-82
2022/06/08 06:56:19;;;;;;;3.67;3.08;;;;;;;16.65;100.00;97483.09;5063898;28;20028;-82
2022/06/08 06:58:48;;;;;;;6.90;3.90;;;;;;;16.54;100.00;97482.75;5042998;28;20063;-80
2022/06/08 07:01:17;;;;;;;5.13;3.58;;;;;;;16.74;100.00;97481.00;5049693;28;20020;-80
2022/06/08 07:03:43;;;;;;;5.75;4.07;;;;;;;16.63;100.00;97485.41;5046074;28;20072;-83
2022/06/08 07:06:09;;;;;;;6.28;4.20;;;;;;;16.77;100.00;97491.34;5043784;28;20029;-76
2022/06/08 07:08:34;;;;;;;5.45;4.30;;;;;;;16.87;100.00;97503.91;5043039;28;20509;-78
2022/06/08 07:13:44;;;;;;;5.57;3.55;;;;;;;17.17;100.00;97505.22;5049766;28;20044;-78
2022/06/08 07:16:09;;;;;;;4.88;3.78;;;;;;;17.20;100.00;97503.75;5042264;28;20025;-78
2022/06/08 07:18:34;;;;;;;6.47;3.75;;;;;;;17.00;100.00;97484.19;5041418;28;20029;-77
2022/06/08 07:21:02;;;;;;;5.60;4.25;;;;;;;17.09;100.00;97518.03;5041207;28;20068;-80
2022/06/08 07:23:28;;;;;;;5.15;3.63;;;;;;;17.00;100.00;97486.97;5048326;28;20032;-80
2022/06/08 07:25:53;;;;;;;10.15;3.70;;;;;;;17.20;100.00;97498.22;5028997;28;20017;-77
2022/06/08 07:28:18;;;;;;;4.75;3.90;;;;;;;17.29;100.00;97496.09;5044274;28;20026;-79
2022/06/08 07:30:44;;;;;;;6.32;3.30;;;;;;;17.28;100.00;97488.97;5042831;28;20486;-84
2022/06/08 07:33:12;;;;;;;4.78;3.22;;;;;;;17.42;100.00;97505.94;5025747;28;20119;-80
2022/06/08 07:35:37;;;;;;;4.20;3.30;;;;;;;17.37;100.00;97492.38;5025408;28;20033;-80
2022/06/08 07:38:03;;;;;;;4.97;3.10;;;;;;;17.43;100.00;97499.28;5025696;28;20021;-80
2022/06/08 07:40:28;;;;;;;5.70;3.17;;;;;;;17.40;100.00;97494.44;5053695;28;20030;-85
2022/06/08 07:42:53;;;;;;;5.22;3.58;;;;;;;17.38;100.00;97497.59;5036586;28;20020;-82
2022/06/08 07:45:19;;;;;;;3.92;3.30;;;;;;;17.53;100.00;97496.03;5036451;28;20056;-78
2022/06/08 07:50:30;;;;;;;4.38;3.33;;;;;;;17.64;100.00;97481.34;5070302;28;20039;-81
2022/06/08 07:52:55;;;;;;;3.92;3.03;;;;;;;17.70;100.00;97495.72;5053294;28;20013;-80
2022/06/08 07:55:21;;;;;;;4.03;3.20;;;;;;;17.74;100.00;97493.06;5056347;28;20087;-76
2022/06/08 07:57:47;;;;;;;4.10;3.45;;;;;;;17.76;100.00;97493.53;5045500;28;20072;-76
2022/06/08 08:00:15;;;;;;;9.38;3.20;;;;;;;17.75;100.00;97481.66;5028610;28;20059;-78
2022/06/08 08:02:41;;;;;;;3.92;2.63;;;;;;;17.82;100.00;97495.69;5039494;28;20029;-79
2022/06/08 08:05:09;;;;;;;4.65;2.95;;;;;;;17.78;100.00;97492.03;5055257;28;20009;-85
2022/06/08 08:07:36;;;;;;;5.25;3.20;;;;;;;17.76;100.00;97488.00;5056989;28;20026;-82
2022/06/08 08:10:06;;;;;;;4.13;2.90;;;;;;;17.65;100.00;97487.69;5062380;28;20029;-83
2022/06/08 08:12:31;;;;;;;3.15;2.58;;;;;;;17.52;100.00;97478.63;5043826;28;20041;-84
2022/06/08 08:14:57;;;;;;;4.45;2.90;;;;;;;17.65;100.00;97482.16;5041162;28;20051;-83
2022/06/08 08:17:22;;;;;;;4.68;2.88;;;;;;;17.82;100.00;97481.06;5060728;28;20021;-80
2022/06/08 08:19:47;;;;;;;4.50;3.08;;;;;;;18.01;100.00;97473.66;5062072;28;20071;-83
2022/06/08 08:22:15;;;;;;;3.60;3.03;;;;;;;17.97;100.00;97464.47;5070432;28;20052;-77
2022/06/08 08:24:40;;;;;;;4.47;3.55;;;;;;;18.20;100.00;97465.47;5044448;28;20036;-81
2022/06/08 08:27:06;;;;;;;5.78;3.45;;;;;;;18.39;100.00;97461.97;5045621;28;20017;-83
2022/06/08 08:29:32;;;;;;;3.33;2.70;;;;;;;18.59;100.00;97457.34;5055288;28;20028;-80
2022/06/08 08:31:57;;;;;;;5.22;2.70;;;;;;;18.04;100.00;97475.72;5049769;28;20036;-80
2022/06/08 08:34:23;;;;;;;3.40;2.55;;;;;;;18.52;100.00;97471.81;5029242;28;20037;-79
2022/06/08 08:36:48;;;;;;;4.90;2.60;;;;;;;18.89;100.00;97475.06;5043222;28;20489;-76
2022/06/08 08:39:15;;;;;;;4.35;2.20;;;;;;;19.06;100.00;97484.97;5048219;28;20042;-77
2022/06/08 08:44:42;;;;;;;2.60;2.00;;;;;;;18.64;100.00;97474.50;5053006;28;20118;-84
2022/06/08 08:47:35;;;;;;;2.90;2.20;;;;;;;18.54;100.00;97482.56;5042500;28;20033;-84
2022/06/08 08:50:14;;;;;;;2.80;2.17;;;;;;;18.66;100.00;97486.03;5038380;28;20045;-83
2022/06/08 08:53:07;;;;;;;6.55;2.35;;;;;;;19.04;100.00;97487.31;5060067;28;20028;-83
2022/06/08 08:55:41;;;;;;;3.97;2.40;;;;;;;19.49;100.00;97467.28;5074607;28;20032;-87
2022/06/08 08:58:07;;;;;;;11.75;3.13;;;;;;;19.61;100.00;97478.22;5054326;28;20017;-84
2022/06/08 09:00:44;;;;;;;4.18;2.53;;;;;;;19.37;100.00;97475.72;5058578;28;20132;-84
2022/06/08 09:03:40;;;;;;;2.55;2.25;;;;;;;19.54;100.00;97475.34;5036538;28;20022;-81
2022/06/08 09:06:12;;;;;;;2.70;2.08;;;;;;;20.53;100.00;97466.88;5053189;28;20033;-82
2022/06/08 09:08:38;;;;;;;2.63;2.30;;;;;;;20.63;98.56;97474.59;5048608;28;20017;-83
2022/06/08 09:11:13;;;;;;;3.67;2.45;;;;;;;19.83;98.85;97474.72;5046309;28;20029;-86
2022/06/08 09:13:49;;;;;;;;;;;;;;;20.88;94.13;97469.41;5035723;28;20033;-82
2022/06/08 09:16:26;;;;;;;;;;;;;;;21.15;91.78;97473.81;5054990;28;20513;-86
2022/06/08 09:18:51;;;;;;;4.18;2.80;;;;;;;21.38;91.40;97472.91;5048726;28;19913;-85
2022/06/08 09:21:29;;;;;;;2.60;1.90;;;;;;;21.07;90.81;97455.41;5026222;28;20059;-82
2022/06/08 09:23:58;;;;;;;2.85;2.13;;;;;;;21.66;86.49;97459.34;5058271;28;20024;-82
2022/06/08 09:26:23;;;;;;;2.55;2.08;;;;;;;22.49;83.30;97473.78;5047403;28;20020;-81
2022/06/08 09:28:57;;;;;;;3.00;2.20;;;;;;;23.34;78.18;97466.81;5069656;28;20029;-82
2022/06/08 09:31:34;;;;;;;5.20;2.37;;;;;;;23.42;75.24;97449.75;5048464;28;20286;-80
2022/06/08 09:34:24;;;;;;;3.00;2.20;;;;;;;23.21;75.46;97469.13;5033578;28;20487;-79
2022/06/08 09:37:12;;;;;;;2.88;2.17;;;;;;;22.12;82.33;97466.25;5032839;28;20030;-83
2022/06/08 09:39:39;;;;;;;2.83;2.05;;;;;;;22.08;84.21;97454.28;5032708;28;20036;-82
2022/06/08 09:42:45;;;;;;;3.20;2.25;;;;;;;23.40;79.84;97452.13;5032086;28;20043;-80
2022/06/08 09:45:50;;;;;;;4.00;2.10;;;;;;;23.71;74.30;97455.47;5053871;28;20375;-83
2022/06/08 09:51:36;;;;;;;2.47;2.10;;;;;;;23.79;69.79;97440.31;5054608;28;20444;-80
2022/06/08 09:54:12;;;;;;;3.70;2.10;;;;;;;23.22;71.95;97450.41;5053407;28;20078;-81
2022/06/08 09:57:00;;;;;;;2.85;1.90;;;;;;;23.48;72.34;97452.97;5061964;28;20047;-83
2022/06/08 09:59:47;;;;;;;3.78;2.10;;;;;;;23.23;71.79;97452.81;5069633;28;20017;-85
2022/06/08 10:02:38;;;;;;;2.90;2.00;;;;;;;22.96;75.73;97451.47;5065741;28;20028;-84
2022/06/08 10:05:06;;;;;;;2.88;2.22;;;;;;;22.22;76.99;97448.84;5056838;28;20036;-81
2022/06/08 10:07:41;;;;;;;2.58;2.25;;;;;;;21.63;79.28;97432.28;5060734;28;20048;-85
2022/06/08 10:10:31;;;;;;;4.13;2.35;;;;;;;21.73;78.66;97431.59;5055703;28;20040;-83
2022/06/08 10:13:30;;;;;;;2.85;2.00;;;;;;;23.79;70.94;97434.72;5052277;28;20134;-85
2022/06/08 10:16:10;;;;;;;3.97;2.22;;;;;;;25.62;61.80;97422.69;5050949;28;20040;-85
2022/06/08 10:18:47;;;;;;;4.00;2.03;;;;;;;27.41;57.27;97453.38;5039107;28;20025;-82
2022/06/08 10:21:22;;;;;;;2.58;1.92;;;;;;;28.06;55.66;97437.34;5056960;28;20041;-82
2022/06/08 10:24:12;;;;;;;3.35;1.98;;;;;;;26.85;56.71;97448.31;5035713;28;20025;-83
2022/06/08 10:26:49;;;;;;;3.13;2.00;;;;;;;26.31;60.22;97435.94;5052384;28;20017;-86
2022/06/08 10:29:36;;;;;;;2.75;2.10;;;;;;;27.27;57.87;97436.69;5055135;28;20031;-80
2022/06/08 10:32:29;;;;;;;3.40;2.20;;;;;;;27.03;56.89;97432.91;5050679;28;20055;-85
2022/06/08 10:34:55;;;;;;;2.42;2.08;;;;;;;27.18;54.20;97418.72;5036849;28;20025;-85
2022/06/08 10:37:29;;;;;;;4.45;2.10;;;;;;;26.54;56.52;97434.13;5054049;28;20029;-85
2022/06/08 10:39:55;;;;;;;3.25;2.10;;;;;;;25.24;60.46;97410.41;5034779;28;20033;-83
2022/06/08 10:42:39;;;;;;;2.85;2.22;;;;;;;24.22;61.82;97405.69;5015050;28;20045;-83
2022/06/08 10:45:20;;;;;;;3.03;2.30;;;;;;;24.40;62.16;97412.06;5050628;28;20053;-83
2022/06/08 10:47:57;;;;;;;2.78;2.10;;;;;;;23.98;62.36;97386.88;5052042;28;20486;-83
2022/06/08 10:50:39;;;;;;;3.65;2.40;;;;;;;24.26;62.36;97402.91;5046813;28;20033;-83
2022/06/08 10:56:23;;;;;;;3.97;1.98;;;;;;;23.78;63.64;97394.00;5060871;28;20060;-79
2022/06/08 10:59:03;;;;;;;3.55;2.20;;;;;;;24.08;63.17;97393.66;5059157;28;20051;-84
2022/06/08 11:01:50;;;;;;;4.22;2.28;;;;;;;24.08;61.97;97388.88;5062992;28;20036;-85
2022/06/08 11:04:30;;;;;;;3.65;2.30;;;;;;;24.45;63.85;97386.53;5054446;28;20021;-86
2022/06/08 11:07:04;;;;;;;2.70;2.00;;;;;;;24.73;62.95;97387.69;5063368;28;20017;-81
2022/06/08 11:09:33;;;;;;;3.07;2.23;;;;;;;25.32;62.40;97381.16;5040088;28;20033;-78
2022/06/08 11:12:27;;;;;;;3.45;2.10;;;;;;;25.85;56.86;97380.09;5053837;28;20056;-80
2022/06/08 11:15:01;;;;;;;3.58;1.98;;;;;;;25.48;55.99;97369.47;5046217;28;20065;-78
2022/06/08 11:17:29;;;;;;;4.43;2.35;;;;;;;25.08;58.39;97370.84;5052696;28;20116;-77
2022/06/08 11:20:03;;;;;;;2.50;2.00;;;;;;;24.40;58.34;97372.94;5048607;28;20116;-76
2022/06/08 11:22:37;;;;;;;7.32;2.17;;;;;;;24.11;61.07;97371.34;5046413;28;20082;-75
2022/06/08 11:25:09;;;;;;;3.78;2.30;;;;;;;23.59;60.61;97364.44;5050502;28;20032;-74
2022/06/08 11:27:37;;;;;;;2.90;2.17;;;;;;;23.67;61.45;97365.25;5049058;28;20031;-74
2022/06/08 11:30:26;;;;;;;2.40;1.90;;;;;;;23.27;62.72;97352.34;5051105;28;20046;-75
2022/06/08 11:32:51;;;;;;;3.28;2.30;;;;;;;23.22;61.41;97359.09;5042161;28;20548;-79
2022/06/08 11:35:37;;;;;;;2.55;2.08;;;;;;;23.42;59.12;97356.81;5047631;28;20037;-76
2022/06/08 11:38:40;;;;;;;2.88;2.00;;;;;;;23.69;58.10;97355.28;5048157;28;20035;-74
2022/06/08 11:41:15;;;;;;;2.40;2.00;;;;;;;23.62;58.74;97346.09;5043458;28;20037;-74
2022/06/08 11:43:41;;;;;;;2.17;1.90;;;;;;;24.19;56.66;97353.38;5042212;28;20052;-74
2022/06/08 11:46:24;;;;;;;2.10;1.77;;;;;;;24.93;55.19;97352.50;5046970;28;20517;-74
2022/06/08 11:48:51;;;;;;;2.55;2.00;;;;;;;25.08;54.04;97353.25;5043344;28;20048;-77
2022/06/08 11:51:41;;;;;;;2.28;1.92;;;;;;;25.15;54.71;97367.22;5037706;28;20025;-74
2022/06/08 11:54:38;;;;;;;2.97;2.20;;;;;;;24.05;56.81;97352.53;5039739;28;20129;-74
2022/06/08 11:57:14;;;;;;;4.50;2.05;;;;;;;23.99;56.35;97355.72;5017018;28;20033;-77
2022/06/08 11:59:44;;;;;;;3.30;2.03;;;;;;;24.03;56.10;97350.13;5041563;28;20026;-78
2022/06/08 12:02:22;;;;;;;2.65;1.83;;;;;;;24.25;56.08;97348.16;5054725;28;20032;-75